Flight Track Log - Related Links

Times and Time Zones

All times are in EDT time to prevent confusion due to time zone crossing. See the N5191R flight status page for this flight to view local times or setup timezone preferences in your user account.


Time Position Orientation Groundspeed Altitude Reporting Facility
EDT Latitude Longitude Course Direction KTS MPH feet Rate Location/Type
Sun 02:47:27 PM 44.6000 -92.5333 360° North 67 77 1,700  Level Minneapolis TRACON
Sun 02:48:21 PM 44.6167 -92.5333 360° North 93 107 2,300 686 Climbing Minneapolis TRACON
Sun 02:49:12 PM 44.6372 -92.5278 11° North 98 113 2,900 372 Climbing Minneapolis Center
Sun 02:50:14 PM 44.6658 -92.5175 14° North 105 121 3,000 48 Climbing Minneapolis Center
Sun 02:51:16 PM 44.7003 -92.5094 North 123 142 3,000  Level Minneapolis Center
Sun 02:52:18 PM 44.7386 -92.5178 351° North 119 137 3,000 242 Level Minneapolis Center
Sun 02:53:20 PM 44.7678 -92.5211 355° North 108 124 3,500 435 Climbing Minneapolis Center
Sun 02:54:22 PM 44.7958 -92.5222 358° North 102 117 3,900 387 Climbing Minneapolis Center
Sun 02:55:24 PM 44.8225 -92.5322 345° North 100 115 4,300 194 Climbing Minneapolis Center
Sun 02:56:26 PM 44.8503 -92.5461 340° North 105 121 4,300 -96 Level Minneapolis Center
Sun 02:57:29 PM 44.8722 -92.5744 318° Northwest 110 127 4,100 -192 Descending Minneapolis Center
Sun 02:58:31 PM 44.8972 -92.6067 318° Northwest 101 116 3,900 -48 Descending Minneapolis Center
Sun 02:59:33 PM 44.9186 -92.6333 319° Northwest 103 119 4,000 48 Climbing Minneapolis Center
Sun 03:00:35 PM 44.9383 -92.6586 318° Northwest 97 112 4,000 -97 Level Minneapolis Center
Sun 03:01:37 PM 44.9603 -92.6867 318° Northwest 105 121 3,800 -145 Descending Minneapolis Center
Sun 03:02:39 PM 44.9819 -92.7117 321° Northwest 102 117 3,700 48 Descending Minneapolis Center
Sun 03:03:41 PM 45.0028 -92.7414 315° West 91 105 3,900 97 Climbing Minneapolis Center
Sun 03:04:43 PM 45.0231 -92.7664 319° Northwest 95 109 3,900  Level Minneapolis Center
Sun 03:05:45 PM 45.0433 -92.7928 317° Northwest 99 114 3,900  Level Minneapolis Center
Sun 03:06:47 PM 45.0661 -92.8194 320° Northwest 105 121 3,900  Level Minneapolis Center
Sun 03:07:49 PM 45.0883 -92.8478 318° Northwest 108 124 3,900 48 Level Minneapolis Center
Sun 03:08:51 PM 45.1094 -92.8744 318° Northwest 104 120 4,000 -48 Climbing Minneapolis Center
Sun 03:09:53 PM 45.1347 -92.9078 317° Northwest 103 119 3,800 -97 Descending Minneapolis Center
Sun 03:10:55 PM 45.1572 -92.9358 319° Northwest 108 124 3,800 -240 Level Minneapolis Center
Sun 03:11:58 PM 45.1819 -92.9664 319° Northwest 117 135 3,300 -144 Descending Minneapolis Center
Sun 03:13:00 PM 45.2064 -92.9956 320° Northwest 115 132 3,500 290 Climbing Minneapolis Center
Sun 03:14:02 PM 45.2250 -93.0222 315° West 99 114 3,900 242 Climbing Minneapolis Center
Sun 03:15:04 PM 45.2489 -93.0519 319° Northwest 96 110 4,000  Climbing Minneapolis Center
Sun 03:16:06 PM 45.2692 -93.0786 317° Northwest 99 114 3,900  Descending Minneapolis Center
Sun 03:17:08 PM 45.2906 -93.1056 318° Northwest 102 117 4,000 48 Climbing Minneapolis Center
Sun 03:18:10 PM 45.3125 -93.1342 317° Northwest 106 122 4,000 -48 Level Minneapolis Center
Sun 03:19:12 PM 45.3356 -93.1622 319° Northwest 110 127 3,900  Descending Minneapolis Center
Sun 03:20:14 PM 45.3581 -93.1908 318° Northwest 109 125 4,000  Climbing Minneapolis Center
Sun 03:21:16 PM 45.3819 -93.2239 316° Northwest 103 119 3,900 -48 Descending Minneapolis Center
Sun 03:22:18 PM 45.4044 -93.2519 319° Northwest 107 123 3,900  Level Minneapolis Center
Sun 03:23:21 PM 45.4264 -93.2789 319° Northwest 107 123 3,900 48 Level Minneapolis Center
Sun 03:24:23 PM 45.4461 -93.3053 317° Northwest 98 113 4,000 194 Climbing Minneapolis Center
Sun 03:25:25 PM 45.4647 -93.3306 316° Northwest 93 107 4,300 387 Climbing Minneapolis Center
Sun 03:26:27 PM 45.4856 -93.3581 317° Northwest 86 99 4,800 435 Climbing Minneapolis Center
Sun 03:27:29 PM 45.5039 -93.3800 320° Northwest 87 100 5,200 339 Climbing Minneapolis Center
Sun 03:28:31 PM 45.5253 -93.4022 324° Northwest 93 107 5,500 290 Climbing Minneapolis Center
Sun 03:29:33 PM 45.5442 -93.4244 321° Northwest 88 101 5,800 242 Climbing Minneapolis Center
Sun 03:30:35 PM 45.5639 -93.4469 321° Northwest 90 104 6,000 97 Climbing Minneapolis Center
Sun 03:31:37 PM 45.5850 -93.4717 321° Northwest 98 113 6,000  Level Minneapolis Center
Sun 03:32:39 PM 45.6097 -93.5011 320° Northwest 96 110 6,000 -48 Level Minneapolis Center
Sun 03:33:41 PM 45.6303 -93.5261 320° Northwest 97 112 5,900 -48 Descending Minneapolis Center
Sun 03:34:44 PM 45.6517 -93.5500 322° Northwest 98 113 5,900  Level Minneapolis Center
Sun 03:35:46 PM 45.6722 -93.5753 319° Northwest 98 113 5,900  Level Minneapolis Center
Sun 03:36:48 PM 45.6914 -93.5978 321° Northwest 93 107 5,900  Level Minneapolis Center
Sun 03:37:50 PM 45.7122 -93.6189 325° Northwest 92 106 5,900  Level Minneapolis Center
Sun 03:38:52 PM 45.7347 -93.6483 318° Northwest 91 105 5,900 48 Level Minneapolis Center
Sun 03:39:54 PM 45.7561 -93.6725 322° Northwest 94 108 6,000 48 Climbing Minneapolis Center
Sun 03:40:56 PM 45.7750 -93.6992 315° West 95 109 6,000 48 Level Minneapolis Center
Sun 03:41:58 PM 45.7950 -93.7231 320° Northwest 95 109 6,100 48 Climbing Minneapolis Center
Sun 03:43:00 PM 45.8150 -93.7464 321° Northwest 93 107 6,100 -48 Level Minneapolis Center
Sun 03:44:02 PM 45.8392 -93.7722 323° Northwest 91 105 6,000 -48 Descending Minneapolis Center
Sun 03:45:04 PM 45.8597 -93.7967 320° Northwest 94 108 6,000 48 Level Minneapolis Center
Sun 03:46:07 PM 45.8797 -93.8211 320° Northwest 94 108 6,100  Climbing Minneapolis Center
Sun 03:47:09 PM 45.9008 -93.8467 320° Northwest 98 113 6,000 -48 Descending Minneapolis Center
Sun 03:48:11 PM 45.9217 -93.8742 317° Northwest 100 115 6,000  Level Minneapolis Center
Sun 03:49:13 PM 45.9425 -93.9003 319° Northwest 100 115 6,000  Level Minneapolis Center
Sun 03:50:15 PM 45.9678 -93.9292 322° Northwest 98 113 6,000  Level Minneapolis Center
Sun 03:51:17 PM 45.9894 -93.9536 322° Northwest 99 114 6,000 -48 Level Minneapolis Center
Sun 03:52:19 PM 46.0111 -93.9797 320° Northwest 100 115 5,900 -48 Descending Minneapolis Center
Sun 03:53:21 PM 46.0322 -94.0039 322° Northwest 100 115 5,900  Level Minneapolis Center
Sun 03:54:23 PM 46.0517 -94.0331 314° West 98 113 5,900 -48 Level Minneapolis Center
Sun 03:55:25 PM 46.0703 -94.0575 318° Northwest 95 109 5,800 -48 Descending Minneapolis Center
Sun 03:56:28 PM 46.0919 -94.0886 315° West 92 106 5,800  Level Minneapolis Center
Sun 03:57:30 PM 46.1097 -94.1122 317° Northwest 89 102 5,800 97 Level Minneapolis Center
Sun 03:58:32 PM 46.1267 -94.1367 315° West 86 99 6,000 194 Climbing Minneapolis Center
Sun 03:59:34 PM 46.1442 -94.1600 317° Northwest 86 99 6,200 97 Climbing Minneapolis Center
Sun 04:00:36 PM 46.1625 -94.1856 316° Northwest 90 104 6,200  Level Minneapolis Center
Sun 04:01:38 PM 46.1808 -94.2106 317° Northwest 91 105 6,200 -145 Level Minneapolis Center
Sun 04:02:40 PM 46.2047 -94.2422 317° Northwest 95 109 5,900 -145 Descending Minneapolis Center
Sun 04:03:42 PM 46.2211 -94.2661 315° West 93 107 5,900  Level Minneapolis Center
Sun 04:04:44 PM 46.2394 -94.2928 315° West 93 107 5,900 -48 Level Minneapolis Center
Sun 04:05:46 PM 46.2578 -94.3186 316° Northwest 93 107 5,800 48 Descending Minneapolis Center
Sun 04:06:48 PM 46.2783 -94.3469 316° Northwest 89 102 6,000 144 Climbing Minneapolis Center
Sun 04:07:51 PM 46.2956 -94.3708 316° Northwest 85 98 6,100  Climbing Minneapolis Center
Sun 04:08:53 PM 46.3133 -94.3958 316° Northwest 87 100 6,000 -48 Descending Minneapolis Center
Sun 04:09:55 PM 46.3314 -94.4197 318° Northwest 87 100 6,000  Level Minneapolis Center
Sun 04:10:57 PM 46.3492 -94.4461 314° West 88 101 6,000  Level Minneapolis Center
Sun 04:11:59 PM 46.3678 -94.4714 317° Northwest 90 104 6,000  Level Minneapolis Center
Sun 04:13:01 PM 46.3897 -94.5022 316° Northwest 91 105 6,000 48 Level Minneapolis Center
Sun 04:14:03 PM 46.4072 -94.5272 315° West 91 105 6,100  Climbing Minneapolis Center
Sun 04:15:05 PM 46.4253 -94.5522 316° Northwest 90 104 6,000 -48 Descending Minneapolis Center
Sun 04:16:07 PM 46.4417 -94.5772 314° West 89 102 6,000  Level Minneapolis Center
Sun 04:17:09 PM 46.4608 -94.6011 319° Northwest 89 102 6,000  Level Minneapolis Center
Sun 04:18:11 PM 46.4808 -94.6322 313° West 89 102 6,000 48 Level Minneapolis Center
Sun 04:19:13 PM 46.4994 -94.6575 317° Northwest 90 104 6,100 48 Climbing Minneapolis Center
Sun 04:20:16 PM 46.5175 -94.6844 314° West 91 105 6,100 -48 Level Minneapolis Center
Sun 04:21:18 PM 46.5358 -94.7100 316° Northwest 91 105 6,000 -48 Descending Minneapolis Center
Sun 04:22:20 PM 46.5542 -94.7369 315° West 92 106 6,000 48 Level Minneapolis Center
Sun 04:23:22 PM 46.5733 -94.7625 317° Northwest 93 107 6,100 97 Climbing Minneapolis Center
Sun 04:24:24 PM 46.5956 -94.7939 316° Northwest 93 107 6,200 48 Climbing Minneapolis Center
Sun 04:25:26 PM 46.6147 -94.8203 317° Northwest 94 108 6,200 -48 Level Minneapolis Center
Sun 04:26:28 PM 46.6333 -94.8481 314° West 94 108 6,100 -97 Descending Minneapolis Center
Sun 04:27:30 PM 46.6525 -94.8767 314° West 96 110 6,000 -48 Descending Minneapolis Center
Sun 04:28:32 PM 46.6728 -94.9042 317° Northwest 97 112 6,000 -48 Level Minneapolis Center
Sun 04:29:34 PM 46.6936 -94.9336 316° Northwest 100 115 5,900  Descending Minneapolis Center
Sun 04:30:36 PM 46.7158 -94.9653 316° Northwest 99 114 6,000 97 Climbing Minneapolis Center
Sun 04:31:38 PM 46.7347 -94.9922 316° Northwest 97 112 6,100 48 Climbing Minneapolis Center
Sun 04:32:40 PM 46.7539 -95.0192 316° Northwest 96 110 6,100  Level Minneapolis Center
Sun 04:33:43 PM 46.7731 -95.0469 315° West 97 112 6,100  Level Minneapolis Center
Sun 04:34:45 PM 46.7897 -95.0725 314° West 94 108 6,100  Level Minneapolis Center
Sun 04:35:47 PM 46.8086 -95.0989 316° Northwest 93 107 6,100  Level Minneapolis Center
Sun 04:36:49 PM 46.8308 -95.1303 316° Northwest 93 107 6,100  Level Minneapolis Center
Sun 04:37:51 PM 46.8494 -95.1558 317° Northwest 93 107 6,100 48 Level Minneapolis Center
Sun 04:38:53 PM 46.8672 -95.1822 315° West 92 106 6,200 48 Climbing Minneapolis Center
Sun 04:39:55 PM 46.8869 -95.2103 316° Northwest 94 108 6,200 -48 Level Minneapolis Center
Sun 04:40:57 PM 46.9061 -95.2400 313° West 97 112 6,100  Descending Minneapolis Center
Sun 04:42:00 PM 46.9262 -95.2683 316° Northwest  Level FlightAware Approximate
Sun 04:43:01 PM 46.9514 -95.3033 316° Northwest 100 115 6,200  Level Minneapolis Center
Sun 04:44:03 PM 46.9711 -95.3325 315° West 101 116 6,100 -97 Descending Minneapolis Center
Sun 04:45:05 PM 46.9919 -95.3617 316° Northwest 102 117 6,000 -48 Descending Minneapolis Center
Sun 04:46:08 PM 47.0119 -95.3911 315° West 102 117 6,000 48 Level Minneapolis Center
Sun 04:47:10 PM 47.0333 -95.4225 315° West 104 120 6,100  Climbing Minneapolis Center
Sun 04:48:12 PM 47.0542 -95.4528 315° West 106 122 6,000 -97 Descending Minneapolis Center
Sun 04:49:14 PM 47.0814 -95.4878 319° Northwest 106 122 5,900  Descending Minneapolis Center
Sun 04:50:16 PM 47.1033 -95.5189 316° Northwest 105 121 6,000 48 Climbing Minneapolis Center
Sun 04:51:18 PM 47.1244 -95.5511 314° West 106 122 6,000  Level Minneapolis Center
Sun 04:52:32 PM 47.1486 -95.5864 315° West 103 119 6,000  Level Minneapolis Center
Sun 04:53:35 PM 47.1697 -95.6169 315° West 103 119 6,000 48 Level Minneapolis Center
Sun 04:54:37 PM 47.1914 -95.6483 315° West 103 119 6,100 48 Climbing Minneapolis Center
Sun 04:55:39 PM 47.2133 -95.6794 316° Northwest 105 121 6,100 48 Level Minneapolis Center
Sun 04:56:41 PM 47.2325 -95.7067 316° Northwest 102 117 6,200 48 Climbing Minneapolis Center
Sun 04:57:43 PM 47.2539 -95.7383 315° West 104 120 6,200  Level Minneapolis Center
Sun 04:58:45 PM 47.2722 -95.7683 312° West 105 121 6,200 -48 Level Minneapolis Center
Sun 04:59:47 PM 47.2928 -95.7986 315° West 105 121 6,100 -48 Descending Minneapolis Center
Sun 05:00:49 PM 47.3175 -95.8311 318° Northwest 108 124 6,100  Level Minneapolis Center
Sun 05:01:51 PM 47.3375 -95.8611 315° West 107 123 6,100  Level Minneapolis Center
Sun 05:02:53 PM 47.3617 -95.8958 316° Northwest 101 116 6,100  Level Minneapolis Center
Sun 05:03:56 PM 47.3822 -95.9272 314° West 102 117 6,100 -48 Level Minneapolis Center
Sun 05:04:58 PM 47.4022 -95.9564 315° West 105 121 6,000 -48 Descending Minneapolis Center
Sun 05:06:00 PM 47.4231 -95.9883 314° West 104 120 6,000 -48 Level Minneapolis Center
Sun 05:07:02 PM 47.4458 -96.0192 318° Northwest 106 122 5,900 -97 Descending Minneapolis Center
Sun 05:08:04 PM 47.4678 -96.0519 315° West 107 123 5,800 -97 Descending Minneapolis Center
Sun 05:09:06 PM 47.4889 -96.0847 314° West 106 122 5,700 -48 Descending Minneapolis Center
Sun 05:10:08 PM 47.5111 -96.1106 322° Northwest 104 120 5,700 130 Level Minneapolis Center
Sun 05:10:38 PM 47.5222 -96.1300 310° West 102 117 5,900 194 Climbing Minneapolis Center
Sun 05:11:10 PM 47.5281 -96.1453 299° West 106 122 5,900 76 Level Minneapolis Center
Sun 05:11:57 PM 47.5400 -96.1703 305° West 93 107 6,000 -168 Climbing Minneapolis Center
Sun 05:12:57 PM 47.5614 -96.2006 316° Northwest 99 114 5,600 -365 Descending Minneapolis Center
Sun 05:13:52 PM 47.5744 -96.2322 301° West 104 120 5,300 -397 Descending Minneapolis Center
Sun 05:14:58 PM 47.5983 -96.2683 314° West 108 124 4,800 -472 Descending Minneapolis Center
Sun 05:15:59 PM 47.6197 -96.2986 316° Northwest 110 127 4,300 -541 Descending Minneapolis Center
Sun 05:17:00 PM 47.6411 -96.3289 316° Northwest 103 119 3,700 -590 Descending Minneapolis Center
Sun 05:19:00 PM 47.6764 -96.3632 341° North  Level FlightAware Approximate
Sun 05:26:00 PM 47.8044 -96.5733 315° West  Level FlightAware Approximate
Sun 05:27:00 PM 47.8237 -96.6022 315° West  Level FlightAware Approximate

Login

Don't have an account? Register now (free) for customized features, flight alerts, and more!